sensor_id;sensor_type;location;lat;lon;timestamp;P1;durP1;ratioP1;P2;durP2;ratioP2
870;SDS011;422;51.280;7.236;2022-09-13T00:00:42;5.10;;;4.60;;
870;SDS011;422;51.280;7.236;2022-09-13T00:03:11;4.87;;;4.37;;
870;SDS011;422;51.280;7.236;2022-09-13T00:05:43;5.13;;;4.30;;
870;SDS011;422;51.280;7.236;2022-09-13T00:08:20;5.50;;;5.07;;
870;SDS011;422;51.280;7.236;2022-09-13T00:10:47;6.60;;;5.00;;
870;SDS011;422;51.280;7.236;2022-09-13T00:13:15;5.50;;;4.60;;
870;SDS011;422;51.280;7.236;2022-09-13T00:15:53;5.20;;;4.70;;
870;SDS011;422;51.280;7.236;2022-09-13T00:18:21;7.33;;;4.67;;
870;SDS011;422;51.280;7.236;2022-09-13T00:20:51;5.00;;;4.60;;
870;SDS011;422;51.280;7.236;2022-09-13T00:23:28;6.07;;;5.53;;
870;SDS011;422;51.280;7.236;2022-09-13T00:26:04;5.80;;;4.83;;
870;SDS011;422;51.280;7.236;2022-09-13T00:28:33;6.27;;;5.70;;
870;SDS011;422;51.280;7.236;2022-09-13T00:31:03;6.20;;;5.57;;
870;SDS011;422;51.280;7.236;2022-09-13T00:33:34;5.60;;;5.10;;
870;SDS011;422;51.280;7.236;2022-09-13T00:36:02;6.83;;;6.10;;
870;SDS011;422;51.280;7.236;2022-09-13T00:38:47;5.90;;;5.20;;
870;SDS011;422;51.280;7.236;2022-09-13T00:41:22;5.90;;;5.40;;
870;SDS011;422;51.280;7.236;2022-09-13T00:43:50;5.60;;;5.10;;
870;SDS011;422;51.280;7.236;2022-09-13T00:46:20;4.87;;;4.40;;
870;SDS011;422;51.280;7.236;2022-09-13T00:48:56;4.90;;;4.50;;
870;SDS011;422;51.280;7.236;2022-09-13T00:51:29;5.67;;;5.20;;
870;SDS011;422;51.280;7.236;2022-09-13T00:54:07;5.17;;;4.67;;
870;SDS011;422;51.280;7.236;2022-09-13T00:56:39;5.60;;;5.10;;
870;SDS011;422;51.280;7.236;2022-09-13T00:59:11;5.67;;;5.17;;
870;SDS011;422;51.280;7.236;2022-09-13T01:01:53;5.53;;;4.63;;
870;SDS011;422;51.280;7.236;2022-09-13T01:04:25;5.73;;;5.20;;
870;SDS011;422;51.280;7.236;2022-09-13T01:06:56;5.57;;;5.07;;
870;SDS011;422;51.280;7.236;2022-09-13T01:09:30;6.30;;;5.70;;
870;SDS011;422;51.280;7.236;2022-09-13T01:12:02;6.17;;;5.67;;
870;SDS011;422;51.280;7.236;2022-09-13T01:14:34;5.40;;;4.90;;
870;SDS011;422;51.280;7.236;2022-09-13T01:17:02;6.50;;;5.80;;
870;SDS011;422;51.280;7.236;2022-09-13T01:19:36;5.33;;;4.93;;
870;SDS011;422;51.280;7.236;2022-09-13T01:22:11;6.27;;;5.67;;
870;SDS011;422;51.280;7.236;2022-09-13T01:25:19;6.73;;;5.90;;
870;SDS011;422;51.280;7.236;2022-09-13T01:28:12;5.73;;;5.17;;
870;SDS011;422;51.280;7.236;2022-09-13T01:30:51;5.50;;;5.10;;
870;SDS011;422;51.280;7.236;2022-09-13T01:33:38;6.17;;;5.13;;
870;SDS011;422;51.280;7.236;2022-09-13T01:39:23;6.03;;;5.53;;
870;SDS011;422;51.280;7.236;2022-09-13T01:42:02;6.33;;;5.17;;
870;SDS011;422;51.280;7.236;2022-09-13T01:44:45;5.80;;;5.30;;
870;SDS011;422;51.280;7.236;2022-09-13T01:47:26;5.93;;;5.43;;
870;SDS011;422;51.280;7.236;2022-09-13T01:50:14;5.87;;;5.27;;
870;SDS011;422;51.280;7.236;2022-09-13T01:52:55;4.77;;;4.37;;
870;SDS011;422;51.280;7.236;2022-09-13T01:55:29;5.20;;;4.80;;
870;SDS011;422;51.280;7.236;2022-09-13T01:58:11;5.10;;;4.70;;
870;SDS011;422;51.280;7.236;2022-09-13T02:00:51;5.90;;;5.40;;
870;SDS011;422;51.280;7.236;2022-09-13T02:03:32;5.47;;;4.90;;
870;SDS011;422;51.280;7.236;2022-09-13T02:06:05;5.73;;;5.23;;
870;SDS011;422;51.280;7.236;2022-09-13T02:08:42;5.17;;;4.77;;
870;SDS011;422;51.280;7.236;2022-09-13T02:11:12;5.30;;;4.90;;
870;SDS011;422;51.280;7.236;2022-09-13T02:13:42;5.30;;;4.80;;
870;SDS011;422;51.280;7.236;2022-09-13T02:16:15;4.80;;;4.40;;
870;SDS011;422;51.280;7.236;2022-09-13T02:18:49;4.87;;;4.37;;
870;SDS011;422;51.280;7.236;2022-09-13T02:21:25;5.53;;;5.03;;
870;SDS011;422;51.280;7.236;2022-09-13T02:23:56;5.40;;;4.87;;
870;SDS011;422;51.280;7.236;2022-09-13T02:26:28;5.20;;;4.50;;
870;SDS011;422;51.280;7.236;2022-09-13T02:29:02;5.30;;;4.80;;
870;SDS011;422;51.280;7.236;2022-09-13T02:31:38;4.83;;;4.37;;
870;SDS011;422;51.280;7.236;2022-09-13T02:34:16;4.77;;;4.37;;
870;SDS011;422;51.280;7.236;2022-09-13T02:36:49;5.63;;;5.13;;
870;SDS011;422;51.280;7.236;2022-09-13T02:39:22;6.20;;;5.50;;
870;SDS011;422;51.280;7.236;2022-09-13T02:41:53;5.23;;;4.73;;
870;SDS011;422;51.280;7.236;2022-09-13T02:44:26;5.30;;;4.80;;
870;SDS011;422;51.280;7.236;2022-09-13T02:47:03;5.60;;;4.80;;
870;SDS011;422;51.280;7.236;2022-09-13T02:49:41;5.90;;;5.40;;
870;SDS011;422;51.280;7.236;2022-09-13T02:52:18;5.37;;;4.97;;
870;SDS011;422;51.280;7.236;2022-09-13T02:54:55;5.13;;;4.63;;
870;SDS011;422;51.280;7.236;2022-09-13T02:57:27;5.50;;;5.10;;
870;SDS011;422;51.280;7.236;2022-09-13T03:00:00;6.10;;;5.20;;
870;SDS011;422;51.280;7.236;2022-09-13T03:02:31;5.60;;;5.10;;
870;SDS011;422;51.280;7.236;2022-09-13T03:05:01;5.63;;;5.13;;
870;SDS011;422;51.280;7.236;2022-09-13T03:07:34;5.57;;;5.17;;
870;SDS011;422;51.280;7.236;2022-09-13T03:10:03;6.37;;;5.77;;
870;SDS011;422;51.280;7.236;2022-09-13T03:12:43;5.40;;;4.97;;
870;SDS011;422;51.280;7.236;2022-09-13T03:15:43;8.60;;;5.37;;
870;SDS011;422;51.280;7.236;2022-09-13T03:18:22;6.80;;;4.93;;
870;SDS011;422;51.280;7.236;2022-09-13T03:21:10;6.27;;;5.67;;
870;SDS011;422;51.280;7.236;2022-09-13T03:23:49;5.60;;;5.10;;
870;SDS011;422;51.280;7.236;2022-09-13T03:26:26;4.83;;;4.33;;
870;SDS011;422;51.280;7.236;2022-09-13T03:29:08;5.10;;;4.70;;
870;SDS011;422;51.280;7.236;2022-09-13T03:31:47;5.83;;;5.10;;
870;SDS011;422;51.280;7.236;2022-09-13T03:34:21;5.00;;;4.60;;
870;SDS011;422;51.280;7.236;2022-09-13T03:36:58;5.73;;;5.23;;
870;SDS011;422;51.280;7.236;2022-09-13T03:39:36;5.93;;;5.43;;
870;SDS011;422;51.280;7.236;2022-09-13T03:42:09;4.90;;;4.50;;
870;SDS011;422;51.280;7.236;2022-09-13T03:44:42;5.53;;;5.03;;
870;SDS011;422;51.280;7.236;2022-09-13T03:47:17;6.47;;;5.87;;
870;SDS011;422;51.280;7.236;2022-09-13T03:49:46;6.27;;;5.13;;
870;SDS011;422;51.280;7.236;2022-09-13T03:52:18;5.53;;;5.13;;
870;SDS011;422;51.280;7.236;2022-09-13T03:54:54;7.57;;;6.50;;
870;SDS011;422;51.280;7.236;2022-09-13T03:57:23;6.00;;;5.40;;
870;SDS011;422;51.280;7.236;2022-09-13T03:59:51;6.03;;;5.43;;
870;SDS011;422;51.280;7.236;2022-09-13T04:02:19;6.10;;;5.50;;
870;SDS011;422;51.280;7.236;2022-09-13T04:04:52;6.60;;;6.00;;
870;SDS011;422;51.280;7.236;2022-09-13T04:07:25;6.33;;;5.77;;
870;SDS011;422;51.280;7.236;2022-09-13T04:09:55;7.10;;;6.50;;
870;SDS011;422;51.280;7.236;2022-09-13T04:12:24;8.00;;;6.33;;
870;SDS011;422;51.280;7.236;2022-09-13T04:14:55;6.47;;;5.90;;
870;SDS011;422;51.280;7.236;2022-09-13T04:17:23;5.83;;;5.33;;
870;SDS011;422;51.280;7.236;2022-09-13T04:19:52;7.90;;;6.23;;
870;SDS011;422;51.280;7.236;2022-09-13T04:22:24;6.37;;;5.77;;
870;SDS011;422;51.280;7.236;2022-09-13T04:24:54;6.77;;;5.83;;
870;SDS011;422;51.280;7.236;2022-09-13T04:27:25;6.20;;;5.60;;
870;SDS011;422;51.280;7.236;2022-09-13T04:29:55;5.90;;;5.30;;
870;SDS011;422;51.280;7.236;2022-09-13T04:32:22;6.57;;;6.07;;
870;SDS011;422;51.280;7.236;2022-09-13T04:34:53;7.17;;;6.57;;
870;SDS011;422;51.280;7.236;2022-09-13T04:37:20;9.40;;;6.80;;
870;SDS011;422;51.280;7.236;2022-09-13T04:39:49;7.33;;;6.70;;
870;SDS011;422;51.280;7.236;2022-09-13T04:42:16;10.43;;;6.30;;
870;SDS011;422;51.280;7.236;2022-09-13T04:44:46;8.00;;;6.13;;
870;SDS011;422;51.280;7.236;2022-09-13T04:47:16;7.13;;;6.53;;
870;SDS011;422;51.280;7.236;2022-09-13T04:49:43;6.40;;;5.83;;
870;SDS011;422;51.280;7.236;2022-09-13T04:52:14;6.73;;;6.13;;
870;SDS011;422;51.280;7.236;2022-09-13T04:54:44;7.27;;;6.23;;
870;SDS011;422;51.280;7.236;2022-09-13T04:57:16;7.30;;;6.60;;
870;SDS011;422;51.280;7.236;2022-09-13T04:59:45;8.10;;;5.67;;
870;SDS011;422;51.280;7.236;2022-09-13T05:02:18;7.30;;;6.67;;
870;SDS011;422;51.280;7.236;2022-09-13T05:04:47;7.33;;;6.60;;
870;SDS011;422;51.280;7.236;2022-09-13T05:07:19;7.13;;;5.93;;
870;SDS011;422;51.280;7.236;2022-09-13T05:09:47;7.50;;;6.20;;
870;SDS011;422;51.280;7.236;2022-09-13T05:12:19;6.47;;;5.87;;
870;SDS011;422;51.280;7.236;2022-09-13T05:14:46;6.23;;;5.67;;
870;SDS011;422;51.280;7.236;2022-09-13T05:17:13;6.67;;;6.10;;
870;SDS011;422;51.280;7.236;2022-09-13T05:19:40;6.60;;;6.00;;
870;SDS011;422;51.280;7.236;2022-09-13T05:22:10;7.17;;;6.53;;
870;SDS011;422;51.280;7.236;2022-09-13T05:24:48;7.07;;;6.40;;
870;SDS011;422;51.280;7.236;2022-09-13T05:27:16;6.63;;;6.00;;
870;SDS011;422;51.280;7.236;2022-09-13T05:29:47;6.50;;;5.90;;
870;SDS011;422;51.280;7.236;2022-09-13T05:32:17;14.93;;;6.10;;
870;SDS011;422;51.280;7.236;2022-09-13T05:34:47;9.10;;;5.97;;
870;SDS011;422;51.280;7.236;2022-09-13T05:37:14;9.03;;;6.23;;
870;SDS011;422;51.280;7.236;2022-09-13T05:39:44;6.93;;;5.77;;
870;SDS011;422;51.280;7.236;2022-09-13T05:42:20;9.23;;;6.33;;
870;SDS011;422;51.280;7.236;2022-09-13T05:44:49;7.00;;;6.30;;
870;SDS011;422;51.280;7.236;2022-09-13T05:47:16;8.17;;;6.77;;
870;SDS011;422;51.280;7.236;2022-09-13T05:49:46;7.03;;;6.33;;
870;SDS011;422;51.280;7.236;2022-09-13T05:52:15;10.63;;;6.67;;
870;SDS011;422;51.280;7.236;2022-09-13T05:54:46;7.60;;;6.90;;
870;SDS011;422;51.280;7.236;2022-09-13T05:57:13;9.10;;;6.97;;
870;SDS011;422;51.280;7.236;2022-09-13T05:59:45;12.23;;;7.30;;
870;SDS011;422;51.280;7.236;2022-09-13T06:02:13;14.10;;;6.73;;
870;SDS011;422;51.280;7.236;2022-09-13T06:04:42;7.43;;;6.23;;
870;SDS011;422;51.280;7.236;2022-09-13T06:07:15;14.33;;;8.50;;
870;SDS011;422;51.280;7.236;2022-09-13T06:09:44;10.40;;;6.60;;
870;SDS011;422;51.280;7.236;2022-09-13T06:12:11;14.17;;;7.07;;
870;SDS011;422;51.280;7.236;2022-09-13T06:14:38;9.43;;;5.87;;
870;SDS011;422;51.280;7.236;2022-09-13T06:17:08;9.73;;;6.40;;
870;SDS011;422;51.280;7.236;2022-09-13T06:19:35;10.03;;;6.70;;
870;SDS011;422;51.280;7.236;2022-09-13T06:22:03;9.73;;;6.80;;
870;SDS011;422;51.280;7.236;2022-09-13T06:24:35;10.30;;;5.47;;
870;SDS011;422;51.280;7.236;2022-09-13T06:27:06;8.77;;;6.50;;
870;SDS011;422;51.280;7.236;2022-09-13T06:29:36;7.30;;;5.90;;
870;SDS011;422;51.280;7.236;2022-09-13T06:32:05;6.70;;;6.07;;
870;SDS011;422;51.280;7.236;2022-09-13T06:34:34;6.80;;;6.20;;
870;SDS011;422;51.280;7.236;2022-09-13T06:37:03;6.37;;;5.73;;
870;SDS011;422;51.280;7.236;2022-09-13T06:39:33;6.50;;;5.90;;
870;SDS011;422;51.280;7.236;2022-09-13T06:42:00;8.17;;;6.20;;
870;SDS011;422;51.280;7.236;2022-09-13T06:44:27;6.83;;;5.33;;
870;SDS011;422;51.280;7.236;2022-09-13T06:46:55;10.13;;;5.80;;
870;SDS011;422;51.280;7.236;2022-09-13T06:49:24;10.13;;;5.63;;
870;SDS011;422;51.280;7.236;2022-09-13T06:51:53;6.60;;;5.90;;
870;SDS011;422;51.280;7.236;2022-09-13T06:54:20;10.00;;;6.23;;
870;SDS011;422;51.280;7.236;2022-09-13T06:56:48;6.87;;;6.17;;
870;SDS011;422;51.280;7.236;2022-09-13T06:59:16;6.17;;;5.57;;
870;SDS011;422;51.280;7.236;2022-09-13T07:01:44;6.83;;;5.47;;
870;SDS011;422;51.280;7.236;2022-09-13T07:04:12;6.20;;;5.53;;
870;SDS011;422;51.280;7.236;2022-09-13T07:06:43;7.80;;;6.10;;
870;SDS011;422;51.280;7.236;2022-09-13T07:09:12;6.43;;;5.20;;
870;SDS011;422;51.280;7.236;2022-09-13T07:11:41;5.67;;;5.00;;
870;SDS011;422;51.280;7.236;2022-09-13T07:14:11;8.10;;;5.30;;
870;SDS011;422;51.280;7.236;2022-09-13T07:16:39;5.53;;;5.03;;
870;SDS011;422;51.280;7.236;2022-09-13T07:19:12;5.80;;;4.07;;
870;SDS011;422;51.280;7.236;2022-09-13T07:21:43;7.30;;;4.90;;
870;SDS011;422;51.280;7.236;2022-09-13T07:24:11;6.20;;;5.60;;
870;SDS011;422;51.280;7.236;2022-09-13T07:26:38;5.60;;;5.10;;
870;SDS011;422;51.280;7.236;2022-09-13T07:29:07;4.57;;;4.17;;
870;SDS011;422;51.280;7.236;2022-09-13T07:31:38;4.87;;;4.27;;
870;SDS011;422;51.280;7.236;2022-09-13T07:34:09;5.10;;;4.63;;
870;SDS011;422;51.280;7.236;2022-09-13T07:36:38;5.47;;;5.07;;
870;SDS011;422;51.280;7.236;2022-09-13T07:39:10;7.90;;;5.20;;
870;SDS011;422;51.280;7.236;2022-09-13T07:41:37;4.70;;;4.30;;
870;SDS011;422;51.280;7.236;2022-09-13T07:44:08;6.07;;;5.47;;
870;SDS011;422;51.280;7.236;2022-09-13T07:46:41;4.90;;;4.47;;
870;SDS011;422;51.280;7.236;2022-09-13T07:49:11;5.27;;;4.77;;
870;SDS011;422;51.280;7.236;2022-09-13T07:51:42;4.80;;;4.40;;
870;SDS011;422;51.280;7.236;2022-09-13T07:54:19;4.83;;;4.33;;
870;SDS011;422;51.280;7.236;2022-09-13T07:56:46;7.20;;;4.37;;
870;SDS011;422;51.280;7.236;2022-09-13T07:59:17;5.53;;;4.27;;
870;SDS011;422;51.280;7.236;2022-09-13T08:01:45;5.93;;;4.50;;
870;SDS011;422;51.280;7.236;2022-09-13T08:04:14;4.83;;;4.43;;
870;SDS011;422;51.280;7.236;2022-09-13T08:06:52;5.83;;;4.80;;
870;SDS011;422;51.280;7.236;2022-09-13T08:09:21;5.37;;;4.97;;
870;SDS011;422;51.280;7.236;2022-09-13T08:11:52;6.40;;;4.63;;
870;SDS011;422;51.280;7.236;2022-09-13T08:14:22;4.77;;;4.37;;
870;SDS011;422;51.280;7.236;2022-09-13T08:16:49;6.10;;;4.70;;
870;SDS011;422;51.280;7.236;2022-09-13T08:19:23;6.10;;;4.60;;
870;SDS011;422;51.280;7.236;2022-09-13T08:21:55;5.67;;;5.00;;
870;SDS011;422;51.280;7.236;2022-09-13T08:24:27;5.00;;;4.60;;
870;SDS011;422;51.280;7.236;2022-09-13T08:26:54;6.43;;;5.90;;
870;SDS011;422;51.280;7.236;2022-09-13T08:29:24;4.50;;;4.10;;
870;SDS011;422;51.280;7.236;2022-09-13T08:31:52;4.40;;;4.10;;
870;SDS011;422;51.280;7.236;2022-09-13T08:34:19;5.00;;;4.33;;
870;SDS011;422;51.280;7.236;2022-09-13T08:36:46;4.60;;;3.83;;
870;SDS011;422;51.280;7.236;2022-09-13T08:39:14;4.10;;;3.70;;
870;SDS011;422;51.280;7.236;2022-09-13T08:44:48;5.10;;;4.10;;
870;SDS011;422;51.280;7.236;2022-09-13T08:47:23;4.40;;;3.87;;
870;SDS011;422;51.280;7.236;2022-09-13T08:50:00;4.77;;;4.30;;
870;SDS011;422;51.280;7.236;2022-09-13T08:52:32;5.33;;;3.70;;
870;SDS011;422;51.280;7.236;2022-09-13T08:55:14;5.20;;;3.23;;
870;SDS011;422;51.280;7.236;2022-09-13T08:57:49;4.43;;;3.73;;
870;SDS011;422;51.280;7.236;2022-09-13T09:00:22;4.30;;;3.90;;
870;SDS011;422;51.280;7.236;2022-09-13T09:03:12;4.27;;;3.83;;
870;SDS011;422;51.280;7.236;2022-09-13T09:05:49;3.63;;;3.33;;
870;SDS011;422;51.280;7.236;2022-09-13T09:08:22;5.77;;;3.37;;
870;SDS011;422;51.280;7.236;2022-09-13T09:10:56;4.13;;;3.83;;
870;SDS011;422;51.280;7.236;2022-09-13T09:13:28;5.53;;;3.90;;
870;SDS011;422;51.280;7.236;2022-09-13T09:16:04;5.23;;;4.00;;
870;SDS011;422;51.280;7.236;2022-09-13T09:18:36;6.40;;;3.67;;
870;SDS011;422;51.280;7.236;2022-09-13T09:21:09;4.57;;;3.50;;
870;SDS011;422;51.280;7.236;2022-09-13T09:23:46;5.10;;;3.60;;
870;SDS011;422;51.280;7.236;2022-09-13T09:26:23;3.90;;;3.60;;
870;SDS011;422;51.280;7.236;2022-09-13T09:28:54;4.53;;;3.90;;
870;SDS011;422;51.280;7.236;2022-09-13T09:31:30;4.70;;;4.30;;
870;SDS011;422;51.280;7.236;2022-09-13T09:34:12;6.93;;;3.60;;
870;SDS011;422;51.280;7.236;2022-09-13T09:36:47;4.47;;;4.07;;
870;SDS011;422;51.280;7.236;2022-09-13T09:39:28;4.03;;;3.73;;
870;SDS011;422;51.280;7.236;2022-09-13T09:42:03;8.80;;;4.93;;
870;SDS011;422;51.280;7.236;2022-09-13T09:44:37;4.30;;;3.83;;
870;SDS011;422;51.280;7.236;2022-09-13T09:47:11;5.10;;;4.33;;
870;SDS011;422;51.280;7.236;2022-09-13T09:49:43;4.27;;;3.87;;
870;SDS011;422;51.280;7.236;2022-09-13T09:52:32;4.43;;;4.00;;
870;SDS011;422;51.280;7.236;2022-09-13T09:55:16;5.77;;;3.70;;
870;SDS011;422;51.280;7.236;2022-09-13T09:57:52;4.30;;;3.77;;
870;SDS011;422;51.280;7.236;2022-09-13T10:00:26;4.40;;;3.73;;
870;SDS011;422;51.280;7.236;2022-09-13T10:03:02;4.77;;;3.97;;
870;SDS011;422;51.280;7.236;2022-09-13T10:05:34;4.33;;;3.93;;
870;SDS011;422;51.280;7.236;2022-09-13T10:08:06;5.53;;;4.10;;
870;SDS011;422;51.280;7.236;2022-09-13T10:10:50;4.20;;;3.77;;
870;SDS011;422;51.280;7.236;2022-09-13T10:13:20;4.53;;;4.13;;
870;SDS011;422;51.280;7.236;2022-09-13T10:15:52;4.93;;;4.40;;
870;SDS011;422;51.280;7.236;2022-09-13T10:18:28;4.50;;;4.17;;
870;SDS011;422;51.280;7.236;2022-09-13T10:21:00;4.50;;;4.10;;
870;SDS011;422;51.280;7.236;2022-09-13T10:23:30;4.90;;;4.50;;
870;SDS011;422;51.280;7.236;2022-09-13T10:26:02;5.70;;;4.60;;
870;SDS011;422;51.280;7.236;2022-09-13T10:28:39;3.90;;;3.60;;
870;SDS011;422;51.280;7.236;2022-09-13T10:31:12;7.23;;;4.30;;
870;SDS011;422;51.280;7.236;2022-09-13T10:33:50;4.70;;;4.30;;
870;SDS011;422;51.280;7.236;2022-09-13T10:36:27;3.70;;;3.40;;
870;SDS011;422;51.280;7.236;2022-09-13T10:38:58;5.40;;;4.80;;
870;SDS011;422;51.280;7.236;2022-09-13T10:41:28;4.73;;;4.30;;
870;SDS011;422;51.280;7.236;2022-09-13T10:43:58;4.40;;;4.00;;
870;SDS011;422;51.280;7.236;2022-09-13T10:46:31;4.80;;;4.40;;
870;SDS011;422;51.280;7.236;2022-09-13T10:49:09;5.33;;;4.10;;
870;SDS011;422;51.280;7.236;2022-09-13T10:55:13;6.40;;;4.17;;
870;SDS011;422;51.280;7.236;2022-09-13T10:58:10;6.83;;;3.70;;
870;SDS011;422;51.280;7.236;2022-09-13T11:04:24;4.70;;;3.93;;
870;SDS011;422;51.280;7.236;2022-09-13T11:10:06;4.13;;;3.73;;
870;SDS011;422;51.280;7.236;2022-09-13T11:12:38;5.53;;;3.63;;
870;SDS011;422;51.280;7.236;2022-09-13T11:15:13;5.37;;;4.03;;
870;SDS011;422;51.280;7.236;2022-09-13T11:18:01;5.00;;;4.60;;
870;SDS011;422;51.280;7.236;2022-09-13T11:21:11;6.00;;;4.90;;
870;SDS011;422;51.280;7.236;2022-09-13T11:23:52;4.80;;;4.27;;
870;SDS011;422;51.280;7.236;2022-09-13T11:26:42;5.70;;;4.20;;
870;SDS011;422;51.280;7.236;2022-09-13T11:29:27;4.60;;;4.20;;
870;SDS011;422;51.280;7.236;2022-09-13T11:32:16;5.23;;;3.70;;
870;SDS011;422;51.280;7.236;2022-09-13T11:34:56;4.27;;;3.87;;
870;SDS011;422;51.280;7.236;2022-09-13T11:37:41;3.90;;;3.60;;
870;SDS011;422;51.280;7.236;2022-09-13T11:40:21;4.70;;;4.30;;
870;SDS011;422;51.280;7.236;2022-09-13T11:43:01;4.83;;;4.43;;
870;SDS011;422;51.280;7.236;2022-09-13T11:45:43;4.60;;;4.17;;
870;SDS011;422;51.280;7.236;2022-09-13T11:48:28;3.67;;;3.37;;
870;SDS011;422;51.280;7.236;2022-09-13T11:51:08;6.07;;;4.27;;
870;SDS011;422;51.280;7.236;2022-09-13T11:53:57;4.23;;;3.87;;
870;SDS011;422;51.280;7.236;2022-09-13T11:56:38;4.37;;;3.83;;
870;SDS011;422;51.280;7.236;2022-09-13T11:59:17;5.23;;;4.10;;
870;SDS011;422;51.280;7.236;2022-09-13T12:01:58;4.07;;;3.70;;
870;SDS011;422;51.280;7.236;2022-09-13T12:04:29;4.73;;;4.33;;
870;SDS011;422;51.280;7.236;2022-09-13T12:07:04;5.83;;;4.10;;
870;SDS011;422;51.280;7.236;2022-09-13T12:09:41;3.40;;;3.10;;
870;SDS011;422;51.280;7.236;2022-09-13T12:12:13;3.53;;;3.23;;
870;SDS011;422;51.280;7.236;2022-09-13T12:14:53;3.73;;;3.40;;
870;SDS011;422;51.280;7.236;2022-09-13T12:17:26;5.00;;;3.73;;
870;SDS011;422;51.280;7.236;2022-09-13T12:20:00;3.60;;;3.30;;
870;SDS011;422;51.280;7.236;2022-09-13T12:22:33;3.90;;;3.50;;
870;SDS011;422;51.280;7.236;2022-09-13T12:25:11;4.33;;;4.00;;
870;SDS011;422;51.280;7.236;2022-09-13T12:27:51;4.47;;;4.07;;
870;SDS011;422;51.280;7.236;2022-09-13T12:30:32;4.70;;;4.40;;
870;SDS011;422;51.280;7.236;2022-09-13T12:33:07;5.50;;;4.17;;
870;SDS011;422;51.280;7.236;2022-09-13T12:35:42;4.13;;;3.70;;
870;SDS011;422;51.280;7.236;2022-09-13T12:41:22;5.07;;;4.60;;
870;SDS011;422;51.280;7.236;2022-09-13T12:44:12;5.50;;;4.90;;
870;SDS011;422;51.280;7.236;2022-09-13T12:47:07;5.87;;;5.37;;
870;SDS011;422;51.280;7.236;2022-09-13T12:50:05;5.63;;;5.00;;
870;SDS011;422;51.280;7.236;2022-09-13T12:53:06;5.10;;;4.20;;
870;SDS011;422;51.280;7.236;2022-09-13T12:55:56;4.30;;;4.00;;
870;SDS011;422;51.280;7.236;2022-09-13T12:58:40;4.60;;;3.80;;
870;SDS011;422;51.280;7.236;2022-09-13T13:01:25;4.23;;;3.83;;
870;SDS011;422;51.280;7.236;2022-09-13T13:03:55;5.30;;;4.80;;
870;SDS011;422;51.280;7.236;2022-09-13T13:06:31;5.20;;;4.70;;
870;SDS011;422;51.280;7.236;2022-09-13T13:09:03;6.00;;;5.00;;
870;SDS011;422;51.280;7.236;2022-09-13T13:11:41;7.47;;;4.23;;
870;SDS011;422;51.280;7.236;2022-09-13T13:14:41;6.33;;;4.90;;
870;SDS011;422;51.280;7.236;2022-09-13T13:23:16;4.50;;;4.20;;
870;SDS011;422;51.280;7.236;2022-09-13T13:25:54;4.50;;;4.13;;
870;SDS011;422;51.280;7.236;2022-09-13T13:31:39;4.47;;;4.17;;
870;SDS011;422;51.280;7.236;2022-09-13T13:37:31;5.50;;;5.10;;
870;SDS011;422;51.280;7.236;2022-09-13T13:43:27;4.50;;;4.13;;
870;SDS011;422;51.280;7.236;2022-09-13T13:48:55;4.63;;;3.90;;
870;SDS011;422;51.280;7.236;2022-09-13T13:55:28;4.93;;;4.50;;
870;SDS011;422;51.280;7.236;2022-09-13T13:58:29;5.40;;;4.30;;
870;SDS011;422;51.280;7.236;2022-09-13T14:01:05;4.37;;;3.90;;
870;SDS011;422;51.280;7.236;2022-09-13T14:03:57;5.43;;;4.93;;
870;SDS011;422;51.280;7.236;2022-09-13T14:06:51;8.10;;;4.77;;
870;SDS011;422;51.280;7.236;2022-09-13T14:09:37;7.80;;;5.13;;
870;SDS011;422;51.280;7.236;2022-09-13T14:12:15;5.30;;;4.80;;
870;SDS011;422;51.280;7.236;2022-09-13T14:14:55;6.70;;;4.40;;
870;SDS011;422;51.280;7.236;2022-09-13T14:18:00;4.60;;;3.80;;
870;SDS011;422;51.280;7.236;2022-09-13T14:21:00;5.20;;;4.70;;
870;SDS011;422;51.280;7.236;2022-09-13T14:23:32;3.90;;;3.60;;
870;SDS011;422;51.280;7.236;2022-09-13T14:25:59;4.10;;;3.70;;
870;SDS011;422;51.280;7.236;2022-09-13T14:28:27;4.77;;;3.97;;
870;SDS011;422;51.280;7.236;2022-09-13T14:31:00;3.50;;;3.20;;
870;SDS011;422;51.280;7.236;2022-09-13T14:33:31;3.90;;;3.60;;
870;SDS011;422;51.280;7.236;2022-09-13T14:36:03;4.40;;;4.10;;
870;SDS011;422;51.280;7.236;2022-09-13T14:38:33;4.10;;;3.70;;
870;SDS011;422;51.280;7.236;2022-09-13T14:41:11;5.47;;;4.97;;
870;SDS011;422;51.280;7.236;2022-09-13T14:43:44;4.17;;;3.87;;
870;SDS011;422;51.280;7.236;2022-09-13T14:46:20;5.20;;;4.80;;
870;SDS011;422;51.280;7.236;2022-09-13T14:48:56;5.63;;;5.07;;
870;SDS011;422;51.280;7.236;2022-09-13T14:51:28;4.87;;;4.33;;
870;SDS011;422;51.280;7.236;2022-09-13T14:53:59;5.53;;;5.00;;
870;SDS011;422;51.280;7.236;2022-09-13T14:56:32;5.03;;;4.63;;
870;SDS011;422;51.280;7.236;2022-09-13T14:59:10;7.23;;;5.40;;
870;SDS011;422;51.280;7.236;2022-09-13T15:01:40;4.27;;;3.90;;
870;SDS011;422;51.280;7.236;2022-09-13T15:04:07;4.63;;;4.20;;
870;SDS011;422;51.280;7.236;2022-09-13T15:06:39;4.47;;;4.07;;
870;SDS011;422;51.280;7.236;2022-09-13T15:09:24;4.77;;;4.07;;
870;SDS011;422;51.280;7.236;2022-09-13T15:11:57;5.10;;;4.57;;
870;SDS011;422;51.280;7.236;2022-09-13T15:14:27;5.03;;;4.40;;
870;SDS011;422;51.280;7.236;2022-09-13T15:16:59;4.33;;;3.70;;
870;SDS011;422;51.280;7.236;2022-09-13T15:19:37;6.70;;;5.40;;
870;SDS011;422;51.280;7.236;2022-09-13T15:22:14;4.60;;;4.20;;
870;SDS011;422;51.280;7.236;2022-09-13T15:24:50;4.83;;;4.40;;
870;SDS011;422;51.280;7.236;2022-09-13T15:27:24;6.67;;;5.10;;
870;SDS011;422;51.280;7.236;2022-09-13T15:29:55;7.30;;;5.47;;
870;SDS011;422;51.280;7.236;2022-09-13T15:32:29;6.40;;;5.57;;
870;SDS011;422;51.280;7.236;2022-09-13T15:34:59;7.40;;;5.30;;
870;SDS011;422;51.280;7.236;2022-09-13T15:37:29;5.60;;;5.20;;
870;SDS011;422;51.280;7.236;2022-09-13T15:40:07;6.00;;;5.10;;
870;SDS011;422;51.280;7.236;2022-09-13T15:42:46;6.80;;;5.50;;
870;SDS011;422;51.280;7.236;2022-09-13T15:45:15;6.13;;;5.53;;
870;SDS011;422;51.280;7.236;2022-09-13T15:47:45;6.30;;;4.90;;
870;SDS011;422;51.280;7.236;2022-09-13T15:50:19;6.83;;;6.13;;
870;SDS011;422;51.280;7.236;2022-09-13T15:52:53;5.90;;;5.27;;
870;SDS011;422;51.280;7.236;2022-09-13T15:55:20;5.80;;;5.30;;
870;SDS011;422;51.280;7.236;2022-09-13T15:57:48;5.27;;;4.77;;
870;SDS011;422;51.280;7.236;2022-09-13T16:00:17;5.90;;;5.40;;
870;SDS011;422;51.280;7.236;2022-09-13T16:02:46;8.70;;;6.47;;
870;SDS011;422;51.280;7.236;2022-09-13T16:05:16;6.60;;;5.20;;
870;SDS011;422;51.280;7.236;2022-09-13T16:07:44;7.50;;;5.70;;
870;SDS011;422;51.280;7.236;2022-09-13T16:10:13;5.70;;;5.20;;
870;SDS011;422;51.280;7.236;2022-09-13T16:12:43;5.07;;;4.57;;
870;SDS011;422;51.280;7.236;2022-09-13T16:15:13;10.67;;;5.70;;
870;SDS011;422;51.280;7.236;2022-09-13T16:17:41;7.70;;;4.97;;
870;SDS011;422;51.280;7.236;2022-09-13T16:20:10;6.63;;;5.57;;
870;SDS011;422;51.280;7.236;2022-09-13T16:22:39;5.97;;;5.43;;
870;SDS011;422;51.280;7.236;2022-09-13T16:25:07;6.83;;;5.47;;
870;SDS011;422;51.280;7.236;2022-09-13T16:27:38;6.17;;;5.57;;
870;SDS011;422;51.280;7.236;2022-09-13T16:30:09;6.20;;;5.60;;
870;SDS011;422;51.280;7.236;2022-09-13T16:32:42;6.13;;;4.97;;
870;SDS011;422;51.280;7.236;2022-09-13T16:35:10;6.27;;;5.80;;
870;SDS011;422;51.280;7.236;2022-09-13T16:37:39;6.20;;;5.60;;
870;SDS011;422;51.280;7.236;2022-09-13T16:40:09;5.97;;;5.37;;
870;SDS011;422;51.280;7.236;2022-09-13T16:42:40;6.10;;;5.60;;
870;SDS011;422;51.280;7.236;2022-09-13T16:45:07;6.97;;;6.30;;
870;SDS011;422;51.280;7.236;2022-09-13T16:47:36;5.67;;;4.50;;
870;SDS011;422;51.280;7.236;2022-09-13T16:50:03;5.90;;;5.40;;
870;SDS011;422;51.280;7.236;2022-09-13T16:52:33;6.83;;;5.73;;
870;SDS011;422;51.280;7.236;2022-09-13T16:55:01;6.37;;;5.50;;
870;SDS011;422;51.280;7.236;2022-09-13T16:57:30;9.50;;;5.60;;
870;SDS011;422;51.280;7.236;2022-09-13T17:00:00;7.03;;;6.33;;
870;SDS011;422;51.280;7.236;2022-09-13T17:02:34;6.83;;;6.13;;
870;SDS011;422;51.280;7.236;2022-09-13T17:05:01;6.13;;;5.53;;
870;SDS011;422;51.280;7.236;2022-09-13T17:07:31;8.83;;;6.50;;
870;SDS011;422;51.280;7.236;2022-09-13T17:09:58;7.07;;;5.63;;